createdAt,value
2017-06-16T00:00:18.818Z,932.17
2017-06-16T00:00:47.079Z,932.16
2017-06-16T00:01:15.289Z,932.19
2017-06-16T00:02:26.511Z,932.2
2017-06-16T00:02:54.774Z,932.21
2017-06-16T00:03:23.021Z,932.23
2017-06-16T00:03:51.351Z,932.14
2017-06-16T00:04:19.530Z,932.13
2017-06-16T00:04:47.740Z,932.21
2017-06-16T00:05:15.893Z,932.19
2017-06-16T00:05:44.060Z,932.21
2017-06-16T00:06:12.256Z,932.21
2017-06-16T00:06:40.521Z,932.23
2017-06-16T00:07:08.820Z,932.2
2017-06-16T00:08:20.131Z,932.23
2017-06-16T00:08:48.376Z,932.26
2017-06-16T00:09:16.435Z,932.25
2017-06-16T00:09:44.728Z,932.3
2017-06-16T00:10:12.909Z,932.26
2017-06-16T00:10:41.044Z,932.26
2017-06-16T00:11:09.209Z,932.27
2017-06-16T00:11:37.284Z,932.23
2017-06-16T00:12:05.541Z,932.24
2017-06-16T00:12:33.831Z,932.29
2017-06-16T00:13:02.039Z,932.29
2017-06-16T00:14:13.262Z,932.24
2017-06-16T00:14:41.509Z,932.26
2017-06-16T00:15:09.568Z,932.23
2017-06-16T00:15:37.902Z,932.27
2017-06-16T00:16:06.172Z,932.28
2017-06-16T00:16:34.383Z,932.29
2017-06-16T00:17:02.442Z,932.27
2017-06-16T00:17:30.613Z,932.26
2017-06-16T00:17:58.928Z,932.29
2017-06-16T00:18:27.008Z,932.31
2017-06-16T00:18:55.218Z,932.33
2017-06-16T00:20:06.441Z,932.3
2017-06-16T00:20:34.691Z,932.26
2017-06-16T00:21:02.751Z,932.22
2017-06-16T00:21:30.991Z,932.28
2017-06-16T00:21:59.167Z,932.25
2017-06-16T00:22:27.184Z,932.27
2017-06-16T00:22:55.343Z,932.23
2017-06-16T00:23:23.515Z,932.24
2017-06-16T00:23:51.663Z,932.24
2017-06-16T00:24:19.776Z,932.31
2017-06-16T00:24:48.094Z,932.29
2017-06-16T00:25:59.413Z,932.25
2017-06-16T00:26:27.664Z,932.24
2017-06-16T00:26:55.717Z,932.22
2017-06-16T00:27:23.962Z,932.21
2017-06-16T00:27:52.178Z,932.23
2017-06-16T00:28:20.336Z,932.22
2017-06-16T00:28:48.599Z,932.19
2017-06-16T00:29:16.852Z,932.21
2017-06-16T00:29:45.144Z,932.22
2017-06-16T00:30:13.315Z,932.2
2017-06-16T00:30:41.524Z,932.16
2017-06-16T00:31:52.741Z,932.24
2017-06-16T00:32:20.990Z,932.2
2017-06-16T00:32:49.243Z,932.23
2017-06-16T00:33:17.496Z,932.22
2017-06-16T00:33:45.786Z,932.22
2017-06-16T00:34:13.945Z,932.2
2017-06-16T00:34:42.125Z,932.23
2017-06-16T00:35:10.210Z,932.25
2017-06-16T00:35:38.536Z,932.24
2017-06-16T00:36:06.810Z,932.21
2017-06-16T00:36:35.114Z,932.16
2017-06-16T00:37:46.334Z,932.25
2017-06-16T00:38:14.581Z,932.3
2017-06-16T00:38:42.736Z,932.23
2017-06-16T00:39:10.982Z,932.28
2017-06-16T00:39:39.267Z,932.23
2017-06-16T00:40:07.417Z,932.31
2017-06-16T00:40:35.678Z,932.3
2017-06-16T00:41:03.846Z,932.29
2017-06-16T00:41:32.051Z,932.28
2017-06-16T00:42:00.316Z,932.3
2017-06-16T00:42:28.521Z,932.34
2017-06-16T00:43:39.743Z,932.35
2017-06-16T00:44:07.891Z,932.39
2017-06-16T00:44:35.953Z,932.39
2017-06-16T00:45:04.279Z,932.4
2017-06-16T00:45:32.546Z,932.42
2017-06-16T00:46:00.673Z,932.42
2017-06-16T00:46:28.849Z,932.38
2017-06-16T00:46:57.112Z,932.38
2017-06-16T00:47:25.391Z,932.35
2017-06-16T00:47:53.570Z,932.36
2017-06-16T00:48:21.782Z,932.36
2017-06-16T00:49:33.005Z,932.32
2017-06-16T00:50:01.165Z,932.3
2017-06-16T00:50:29.414Z,932.36
2017-06-16T00:50:57.655Z,932.33
2017-06-16T00:51:25.928Z,932.34
2017-06-16T00:51:54.045Z,932.35
2017-06-16T00:52:22.295Z,932.36
2017-06-16T00:52:50.476Z,932.37
2017-06-16T00:53:18.773Z,932.4
2017-06-16T00:53:46.944Z,932.38
2017-06-16T00:54:15.246Z,932.41
2017-06-16T00:55:26.464Z,932.41
2017-06-16T00:55:54.709Z,932.41
2017-06-16T00:56:22.957Z,932.4
2017-06-16T00:56:51.289Z,932.4
2017-06-16T00:57:19.291Z,932.41
2017-06-16T00:57:47.520Z,932.4
2017-06-16T00:58:15.916Z,932.41
2017-06-16T00:58:43.797Z,932.43
2017-06-16T00:59:12.095Z,932.44
2017-06-16T00:59:40.263Z,932.45
2017-06-16T01:00:08.567Z,932.44
2017-06-16T01:01:19.875Z,932.48
2017-06-16T01:01:48.123Z,932.48
2017-06-16T01:02:16.407Z,932.47
2017-06-16T01:02:44.701Z,932.44
2017-06-16T01:03:12.892Z,932.46
2017-06-16T01:03:41.025Z,932.45
2017-06-16T01:04:09.298Z,932.44
2017-06-16T01:04:37.473Z,932.39
2017-06-16T01:05:05.778Z,932.41
2017-06-16T01:05:33.953Z,932.39
2017-06-16T01:06:02.084Z,932.39
2017-06-16T01:07:13.329Z,932.36
2017-06-16T01:07:41.586Z,932.38
2017-06-16T01:08:09.826Z,932.38
2017-06-16T01:08:38.063Z,932.37
2017-06-16T01:09:06.349Z,932.43
2017-06-16T01:09:34.592Z,932.39
2017-06-16T01:10:02.855Z,932.44
2017-06-16T01:10:31.028Z,932.48
2017-06-16T01:10:59.248Z,932.39
2017-06-16T01:11:27.503Z,932.45
2017-06-16T01:11:55.617Z,932.43
2017-06-16T01:13:06.838Z,932.42
2017-06-16T01:13:34.888Z,932.41
2017-06-16T01:14:03.039Z,932.4
2017-06-16T01:14:31.270Z,932.41
2017-06-16T01:14:59.352Z,932.4
2017-06-16T01:15:27.381Z,932.38
2017-06-16T01:15:55.541Z,932.37
2017-06-16T01:16:23.618Z,932.43
2017-06-16T01:16:51.759Z,932.4
2017-06-16T01:17:19.939Z,932.45
2017-06-16T01:17:48.147Z,932.4
2017-06-16T01:18:59.459Z,932.42
2017-06-16T01:19:27.705Z,932.38
2017-06-16T01:19:55.859Z,932.38
2017-06-16T01:20:24.006Z,932.38
2017-06-16T01:20:52.278Z,932.41
2017-06-16T01:21:20.490Z,932.37
2017-06-16T01:21:48.740Z,932.36
2017-06-16T01:22:17.202Z,932.36
2017-06-16T01:22:45.505Z,932.33
2017-06-16T01:23:13.683Z,932.33
2017-06-16T01:23:41.989Z,932.4
2017-06-16T01:24:53.023Z,932.31
2017-06-16T01:25:21.268Z,932.35
2017-06-16T01:25:49.515Z,932.36
2017-06-16T01:26:17.852Z,932.33
2017-06-16T01:26:46.571Z,932.34
2017-06-16T01:27:14.690Z,932.32
2017-06-16T01:27:42.943Z,932.3
2017-06-16T01:28:11.197Z,932.28
2017-06-16T01:28:39.412Z,932.26
2017-06-16T01:29:07.693Z,932.29
2017-06-16T01:29:35.902Z,932.28
2017-06-16T01:30:47.128Z,932.28
2017-06-16T01:31:15.376Z,932.3
2017-06-16T01:31:43.524Z,932.29
2017-06-16T01:32:11.764Z,932.26
2017-06-16T01:32:40.036Z,932.33
2017-06-16T01:33:08.168Z,932.3
2017-06-16T01:33:36.241Z,932.25
2017-06-16T01:34:04.416Z,932.27
2017-06-16T01:34:32.572Z,932.24
2017-06-16T01:35:00.859Z,932.25
2017-06-16T01:35:29.158Z,932.2
2017-06-16T01:36:40.381Z,932.21
2017-06-16T01:37:08.623Z,932.17
2017-06-16T01:37:36.790Z,932.19
2017-06-16T01:38:05.109Z,932.14
2017-06-16T01:38:33.294Z,932.11
2017-06-16T01:39:01.511Z,932.12
2017-06-16T01:39:29.574Z,932.13
2017-06-16T01:39:57.830Z,932.11
2017-06-16T01:40:26.034Z,932.12
2017-06-16T01:40:54.204Z,932.1
2017-06-16T01:41:22.509Z,932.1
2017-06-16T01:42:33.735Z,932.12
2017-06-16T01:43:01.979Z,932.1
2017-06-16T01:43:30.132Z,932.07
2017-06-16T01:43:58.477Z,932.08
2017-06-16T01:44:26.648Z,932.05
2017-06-16T01:44:54.674Z,932.06
2017-06-16T01:45:22.928Z,932.08
2017-06-16T01:45:50.999Z,932.07
2017-06-16T01:46:19.303Z,932.07
2017-06-16T01:46:47.577Z,932.07
2017-06-16T01:47:15.785Z,932.09
2017-06-16T01:48:27.097Z,932.09
2017-06-16T01:48:55.247Z,932.12
2017-06-16T01:49:23.308Z,932.14
2017-06-16T01:49:51.650Z,932.16
2017-06-16T01:50:19.946Z,932.14
2017-06-16T01:50:48.110Z,932.15
2017-06-16T01:51:16.378Z,932.11
2017-06-16T01:51:44.469Z,932.11
2017-06-16T01:52:12.783Z,932.14
2017-06-16T01:52:40.872Z,932.12
2017-06-16T01:53:09.179Z,932.12
2017-06-16T01:54:20.493Z,932.09
2017-06-16T01:54:48.737Z,932.08
2017-06-16T01:55:17.756Z,932.12
2017-06-16T01:55:46.087Z,932.08
2017-06-16T01:56:14.273Z,932.09
2017-06-16T01:56:42.391Z,932.07
2017-06-16T01:57:10.640Z,932.09
2017-06-16T01:57:38.708Z,932.11
2017-06-16T01:58:07.008Z,932.11
2017-06-16T01:58:35.275Z,932.12
2017-06-16T01:59:03.387Z,932.13
2017-06-16T02:00:14.719Z,932.1
2017-06-16T02:00:42.869Z,932.1
2017-06-16T02:01:11.116Z,932.11
2017-06-16T02:01:39.357Z,932.12
2017-06-16T02:02:07.535Z,932.13
2017-06-16T02:02:35.560Z,932.15
2017-06-16T02:03:03.637Z,932.09
2017-06-16T02:03:31.801Z,932.14
2017-06-16T02:03:59.997Z,932.1
2017-06-16T02:04:28.254Z,932.06
2017-06-16T02:04:56.459Z,932.15
2017-06-16T02:06:07.673Z,932.1
2017-06-16T02:06:35.818Z,932.15
2017-06-16T02:07:03.968Z,932.14
2017-06-16T02:07:32.202Z,932.15
2017-06-16T02:08:00.373Z,932.13
2017-06-16T02:08:28.584Z,932.13
2017-06-16T02:08:56.731Z,932.11
2017-06-16T02:09:24.912Z,932.1
2017-06-16T02:09:53.112Z,932.12
2017-06-16T02:10:21.279Z,932.13
2017-06-16T02:10:49.386Z,932.09
2017-06-16T02:12:00.609Z,932.14
2017-06-16T02:12:28.754Z,932.15
2017-06-16T02:12:56.811Z,932.13
2017-06-16T02:13:24.951Z,932.12
2017-06-16T02:13:52.848Z,932.17
2017-06-16T02:14:20.959Z,932.17
2017-06-16T02:14:49.113Z,932.17
2017-06-16T02:15:17.380Z,932.13
2017-06-16T02:15:45.699Z,932.15
2017-06-16T02:16:13.879Z,932.16
2017-06-16T02:16:42.085Z,932.13
2017-06-16T02:17:53.307Z,932.16
2017-06-16T02:18:21.457Z,932.14
2017-06-16T02:18:49.610Z,932.2
2017-06-16T02:19:17.937Z,932.21
2017-06-16T02:19:46.105Z,932.21
2017-06-16T02:20:14.229Z,932.2
2017-06-16T02:20:42.293Z,932.22
2017-06-16T02:21:10.555Z,932.26
2017-06-16T02:21:38.864Z,932.21
2017-06-16T02:22:06.907Z,932.23
2017-06-16T02:22:35.243Z,932.25
2017-06-16T02:23:46.591Z,932.26
2017-06-16T02:24:14.859Z,932.29
2017-06-16T02:24:43.106Z,932.28
2017-06-16T02:25:11.437Z,932.3
2017-06-16T02:25:39.622Z,932.25
2017-06-16T02:26:07.861Z,932.26
2017-06-16T02:26:36.120Z,932.27
2017-06-16T02:27:04.276Z,932.32
2017-06-16T02:27:32.388Z,932.26
2017-06-16T02:28:00.468Z,932.26
2017-06-16T02:28:28.671Z,932.26
2017-06-16T02:29:39.888Z,932.27
2017-06-16T02:30:08.131Z,932.23
2017-06-16T02:30:36.376Z,932.22
2017-06-16T02:31:04.437Z,932.23
2017-06-16T02:31:32.611Z,932.25
2017-06-16T02:32:00.649Z,932.22
2017-06-16T02:32:28.803Z,932.21
2017-06-16T02:32:56.959Z,932.23
2017-06-16T02:33:25.247Z,932.21
2017-06-16T02:33:53.415Z,932.2
2017-06-16T02:34:21.711Z,932.23
2017-06-16T02:35:32.925Z,932.22
2017-06-16T02:36:01.072Z,932.18
2017-06-16T02:36:29.217Z,932.16
2017-06-16T02:36:57.452Z,932.17
2017-06-16T02:37:25.626Z,932.17
2017-06-16T02:37:53.735Z,932.13
2017-06-16T02:38:21.881Z,932.17
2017-06-16T02:38:50.047Z,932.16
2017-06-16T02:39:18.339Z,932.12
2017-06-16T02:39:46.413Z,932.13
2017-06-16T02:40:14.706Z,932.16
2017-06-16T02:41:26.017Z,932.17
2017-06-16T02:41:54.263Z,932.18
2017-06-16T02:42:22.322Z,932.13
2017-06-16T02:42:50.561Z,932.11
2017-06-16T02:43:18.820Z,932.13
2017-06-16T02:43:46.936Z,932.15
2017-06-16T02:44:15.179Z,932.1
2017-06-16T02:44:43.345Z,932.18
2017-06-16T02:45:11.630Z,932.15
2017-06-16T02:45:39.890Z,932.15
2017-06-16T02:46:08.184Z,932.13
2017-06-16T02:47:19.310Z,932.13
2017-06-16T02:47:47.553Z,932.11
2017-06-16T02:48:15.705Z,932.17
2017-06-16T02:48:43.841Z,932.15
2017-06-16T02:49:11.921Z,932.18
2017-06-16T02:49:40.127Z,932.15
2017-06-16T02:50:08.281Z,932.14
2017-06-16T02:50:36.440Z,932.11
2017-06-16T02:51:04.646Z,932.11
2017-06-16T02:51:32.906Z,932.16
2017-06-16T02:52:01.205Z,932.11
2017-06-16T02:53:12.426Z,932.09
2017-06-16T02:53:40.668Z,932.12
2017-06-16T02:54:08.730Z,932.17
2017-06-16T02:54:37.065Z,932.13
2017-06-16T02:55:05.341Z,932.16
2017-06-16T02:55:33.460Z,932.11
2017-06-16T02:56:01.516Z,932.12
2017-06-16T02:56:29.585Z,932.13
2017-06-16T02:56:57.872Z,932.11
2017-06-16T02:57:26.039Z,932.13
2017-06-16T02:57:54.249Z,932.12
2017-06-16T02:59:05.560Z,932.08
2017-06-16T02:59:33.804Z,932.12
2017-06-16T03:00:02.054Z,932.16
2017-06-16T03:00:30.301Z,932.16
2017-06-16T03:00:58.473Z,932.12
2017-06-16T03:01:26.601Z,932.15
2017-06-16T03:01:54.766Z,932.14
2017-06-16T03:02:22.930Z,932.18
2017-06-16T03:02:51.219Z,932.13
2017-06-16T03:03:19.295Z,932.15
2017-06-16T03:03:47.596Z,932.1
2017-06-16T03:04:58.820Z,932.16
2017-06-16T03:05:27.069Z,932.14
2017-06-16T03:05:55.225Z,932.08
2017-06-16T03:06:23.565Z,932.07
2017-06-16T03:06:51.645Z,932.15
2017-06-16T03:07:19.762Z,932.13
2017-06-16T03:07:48.009Z,932.1
2017-06-16T03:08:16.171Z,932.05
2017-06-16T03:08:44.274Z,932.05
2017-06-16T03:09:12.450Z,932.06
2017-06-16T03:09:40.744Z,932.05
2017-06-16T03:10:51.972Z,932.03
2017-06-16T03:11:20.205Z,932.04
2017-06-16T03:11:48.452Z,932.09
2017-06-16T03:12:16.707Z,932.01
2017-06-16T03:12:44.982Z,932.05
2017-06-16T03:13:13.200Z,932.06
2017-06-16T03:13:41.352Z,932.04
2017-06-16T03:14:09.606Z,932.04
2017-06-16T03:14:37.802Z,932.01
2017-06-16T03:15:05.872Z,932.06
2017-06-16T03:15:34.167Z,932.04
2017-06-16T03:16:45.376Z,932.04
2017-06-16T03:17:13.617Z,932.03
2017-06-16T03:17:41.776Z,931.99
2017-06-16T03:18:10.123Z,932.05
2017-06-16T03:18:38.308Z,931.98
2017-06-16T03:19:06.437Z,931.99
2017-06-16T03:19:34.596Z,931.97
2017-06-16T03:20:02.659Z,932
2017-06-16T03:20:30.861Z,932
2017-06-16T03:20:59.027Z,932.01
2017-06-16T03:21:27.232Z,932.02
2017-06-16T03:22:38.458Z,931.99
2017-06-16T03:23:06.701Z,932.02
2017-06-16T03:23:34.949Z,932.01
2017-06-16T03:24:03.289Z,932
2017-06-16T03:24:31.562Z,932
2017-06-16T03:24:59.701Z,931.99
2017-06-16T03:25:27.949Z,931.95
2017-06-16T03:25:56.106Z,931.96
2017-06-16T03:26:24.402Z,931.98
2017-06-16T03:26:52.665Z,932.01
2017-06-16T03:27:20.953Z,931.97
2017-06-16T03:28:32.173Z,931.96
2017-06-16T03:29:00.408Z,931.98
2017-06-16T03:29:28.650Z,931.92
2017-06-16T03:29:56.898Z,931.95
2017-06-16T03:30:24.993Z,931.97
2017-06-16T03:30:53.213Z,931.92
2017-06-16T03:31:21.366Z,931.89
2017-06-16T03:31:49.433Z,932
2017-06-16T03:32:17.730Z,931.95
2017-06-16T03:32:45.988Z,931.94
2017-06-16T03:33:14.282Z,931.92
2017-06-16T03:34:25.497Z,931.88
2017-06-16T03:34:53.735Z,931.92
2017-06-16T03:35:21.979Z,931.97
2017-06-16T03:35:50.319Z,931.9
2017-06-16T03:36:18.592Z,931.92
2017-06-16T03:36:46.717Z,931.9
2017-06-16T03:37:14.866Z,931.96
2017-06-16T03:37:42.835Z,931.92
2017-06-16T03:38:11.134Z,931.84
2017-06-16T03:38:39.391Z,931.82
2017-06-16T03:39:07.682Z,931.85
2017-06-16T03:40:18.905Z,931.83
2017-06-16T03:40:47.142Z,931.88
2017-06-16T03:41:15.292Z,931.85
2017-06-16T03:41:43.638Z,931.85
2017-06-16T03:42:11.819Z,931.8
2017-06-16T03:42:40.036Z,931.84
2017-06-16T03:43:08.195Z,931.78
2017-06-16T03:43:36.355Z,931.79
2017-06-16T03:44:04.643Z,931.79
2017-06-16T03:44:32.898Z,931.77
2017-06-16T03:45:01.032Z,931.73
2017-06-16T03:46:12.250Z,931.75
2017-06-16T03:46:40.486Z,931.77
2017-06-16T03:47:08.730Z,931.76
2017-06-16T03:47:37.075Z,931.79
2017-06-16T03:48:05.350Z,931.74
2017-06-16T03:48:33.473Z,931.74
2017-06-16T03:49:01.713Z,931.74
2017-06-16T03:49:29.968Z,931.78
2017-06-16T03:49:58.160Z,931.76
2017-06-16T03:50:26.413Z,931.77
2017-06-16T03:50:54.702Z,931.7
2017-06-16T03:52:06.016Z,931.75
2017-06-16T03:52:34.255Z,931.72
2017-06-16T03:53:02.501Z,931.73
2017-06-16T03:53:30.837Z,931.76
2017-06-16T03:53:59.103Z,931.76
2017-06-16T03:54:27.227Z,931.74
2017-06-16T03:54:55.475Z,931.77
2017-06-16T03:55:23.635Z,931.76
2017-06-16T03:55:51.930Z,931.73
2017-06-16T03:56:20.187Z,931.71
2017-06-16T03:56:48.383Z,931.7
2017-06-16T03:57:59.696Z,931.73
2017-06-16T03:58:27.930Z,931.66
2017-06-16T03:58:56.083Z,931.71
2017-06-16T03:59:24.368Z,931.66
2017-06-16T03:59:52.611Z,931.7
2017-06-16T04:00:20.737Z,931.7
2017-06-16T04:00:48.896Z,931.69
2017-06-16T04:01:16.956Z,931.66
2017-06-16T04:01:45.153Z,931.68
2017-06-16T04:02:13.129Z,931.65
2017-06-16T04:02:41.180Z,931.69
2017-06-16T04:03:52.283Z,931.69
2017-06-16T04:04:20.542Z,931.67
2017-06-16T04:04:48.682Z,931.69
2017-06-16T04:05:17.019Z,931.64
2017-06-16T04:05:45.200Z,931.68
2017-06-16T04:06:13.335Z,931.66
2017-06-16T04:06:41.483Z,931.61
2017-06-16T04:07:09.640Z,931.64
2017-06-16T04:07:37.747Z,931.6
2017-06-16T04:08:06.001Z,931.64
2017-06-16T04:08:34.298Z,931.55
2017-06-16T04:09:45.516Z,931.6
2017-06-16T04:10:13.752Z,931.53
2017-06-16T04:10:41.993Z,931.53
2017-06-16T04:11:10.241Z,931.51
2017-06-16T04:11:38.417Z,931.54
2017-06-16T04:12:06.542Z,931.54
2017-06-16T04:12:34.788Z,931.53
2017-06-16T04:13:03.068Z,931.52
2017-06-16T04:13:31.276Z,931.51
2017-06-16T04:13:59.250Z,931.54
2017-06-16T04:14:27.546Z,931.53
2017-06-16T04:15:38.667Z,931.5
2017-06-16T04:16:06.905Z,931.49
2017-06-16T04:16:35.151Z,931.54
2017-06-16T04:17:03.406Z,931.53
2017-06-16T04:17:31.585Z,931.53
2017-06-16T04:17:59.716Z,931.53
2017-06-16T04:18:27.868Z,931.56
2017-06-16T04:18:56.025Z,931.55
2017-06-16T04:19:24.220Z,931.54
2017-06-16T04:19:52.384Z,931.55
2017-06-16T04:20:20.487Z,931.54
2017-06-16T04:21:31.704Z,931.53
2017-06-16T04:21:59.938Z,931.55
2017-06-16T04:22:28.090Z,931.54
2017-06-16T04:22:56.352Z,931.52
2017-06-16T04:23:24.531Z,931.56
2017-06-16T04:23:52.755Z,931.56
2017-06-16T04:24:21.002Z,931.51
2017-06-16T04:24:49.165Z,931.53
2017-06-16T04:25:17.462Z,931.54
2017-06-16T04:25:45.625Z,931.49
2017-06-16T04:26:13.828Z,931.52
2017-06-16T04:27:25.046Z,931.49
2017-06-16T04:27:53.284Z,931.49
2017-06-16T04:28:21.536Z,931.5
2017-06-16T04:28:49.878Z,931.47
2017-06-16T04:29:17.965Z,931.45
2017-06-16T04:29:46.003Z,931.46
2017-06-16T04:30:14.250Z,931.45
2017-06-16T04:30:42.316Z,931.44
2017-06-16T04:31:10.518Z,931.42
2017-06-16T04:31:38.775Z,931.45
2017-06-16T04:32:07.066Z,931.44
2017-06-16T04:33:18.377Z,931.46
2017-06-16T04:33:46.519Z,931.47
2017-06-16T04:34:14.673Z,931.42
2017-06-16T04:34:43.024Z,931.43
2017-06-16T04:35:11.110Z,931.4
2017-06-16T04:35:39.333Z,931.38
2017-06-16T04:36:07.583Z,931.41
2017-06-16T04:36:35.744Z,931.42
2017-06-16T04:37:04.039Z,931.4
2017-06-16T04:37:32.292Z,931.38
2017-06-16T04:38:00.591Z,931.42
2017-06-16T04:39:11.808Z,931.36
2017-06-16T04:39:40.040Z,931.4
2017-06-16T04:40:08.197Z,931.36
2017-06-16T04:40:36.541Z,931.33
2017-06-16T04:41:04.724Z,931.29
2017-06-16T04:41:32.857Z,931.34
2017-06-16T04:42:01.105Z,931.4
2017-06-16T04:42:29.360Z,931.38
2017-06-16T04:42:57.656Z,931.36
2017-06-16T04:43:25.820Z,931.38
2017-06-16T04:43:54.023Z,931.37
2017-06-16T04:45:05.342Z,931.36
2017-06-16T04:45:33.578Z,931.37
2017-06-16T04:46:01.820Z,931.37
2017-06-16T04:46:30.167Z,931.33
2017-06-16T04:46:58.442Z,931.31
2017-06-16T04:47:26.662Z,931.35
2017-06-16T04:47:54.814Z,931.4
2017-06-16T04:48:22.975Z,931.34
2017-06-16T04:48:51.181Z,931.37
2017-06-16T04:49:19.344Z,931.34
2017-06-16T04:49:47.641Z,931.33
2017-06-16T04:50:58.857Z,931.32
2017-06-16T04:51:27.097Z,931.35
2017-06-16T04:51:55.350Z,931.32
2017-06-16T04:52:23.604Z,931.27
2017-06-16T04:52:51.876Z,931.32
2017-06-16T04:53:20.002Z,931.3
2017-06-16T04:53:48.246Z,931.29
2017-06-16T04:54:16.407Z,931.31
2017-06-16T04:54:44.703Z,931.29
2017-06-16T04:55:12.955Z,931.25
2017-06-16T04:55:41.252Z,931.31
2017-06-16T04:56:52.464Z,931.34
2017-06-16T04:57:20.607Z,931.31
2017-06-16T04:57:48.855Z,931.28
2017-06-16T04:58:17.196Z,931.34
2017-06-16T04:58:45.376Z,931.34
2017-06-16T04:59:13.596Z,931.31
2017-06-16T04:59:41.848Z,931.25
2017-06-16T05:00:10.103Z,931.27
2017-06-16T05:00:38.309Z,931.27
2017-06-16T05:01:06.560Z,931.24
2017-06-16T05:01:34.852Z,931.33
2017-06-16T05:02:46.067Z,931.26
2017-06-16T05:03:14.303Z,931.27
2017-06-16T05:03:42.459Z,931.3
2017-06-16T05:04:10.620Z,931.3
2017-06-16T05:04:38.893Z,931.25
2017-06-16T05:05:07.022Z,931.33
2017-06-16T05:05:35.271Z,931.3
2017-06-16T05:06:03.520Z,931.31
2017-06-16T05:06:31.724Z,931.28
2017-06-16T05:06:59.984Z,931.38
2017-06-16T05:07:28.279Z,931.31
2017-06-16T05:08:39.502Z,931.34
2017-06-16T05:09:07.741Z,931.32
2017-06-16T05:09:35.993Z,931.34
2017-06-16T05:10:04.243Z,931.28
2017-06-16T05:10:32.331Z,931.27
2017-06-16T05:11:00.459Z,931.24
2017-06-16T05:11:28.614Z,931.23
2017-06-16T05:11:56.768Z,931.25
2017-06-16T05:12:25.059Z,931.24
2017-06-16T05:12:53.220Z,931.24
2017-06-16T05:13:21.515Z,931.29
2017-06-16T05:14:32.825Z,931.25
2017-06-16T05:15:01.063Z,931.22
2017-06-16T05:15:29.311Z,931.24
2017-06-16T05:15:57.652Z,931.25
2017-06-16T05:16:25.921Z,931.2
2017-06-16T05:16:53.953Z,931.26
2017-06-16T05:17:22.199Z,931.17
2017-06-16T05:17:50.362Z,931.18
2017-06-16T05:18:18.554Z,931.16
2017-06-16T05:18:46.722Z,931.19
2017-06-16T05:19:15.021Z,931.14
2017-06-16T05:20:26.335Z,931.14
2017-06-16T05:20:54.573Z,931.18
2017-06-16T05:21:22.825Z,931.13
2017-06-16T05:21:51.074Z,931.2
2017-06-16T05:22:19.346Z,931.16
2017-06-16T05:22:47.472Z,931.09
2017-06-16T05:23:15.945Z,931.12
2017-06-16T05:23:44.009Z,931.12
2017-06-16T05:24:12.307Z,931.11
2017-06-16T05:24:40.568Z,931.14
2017-06-16T05:25:08.860Z,931.13
2017-06-16T05:26:20.173Z,931.13
2017-06-16T05:26:48.313Z,931.07
2017-06-16T05:27:16.466Z,931.09
2017-06-16T05:27:44.619Z,931.1
2017-06-16T05:28:12.701Z,931.01
2017-06-16T05:28:40.830Z,931.04
2017-06-16T05:29:09.073Z,931.04
2017-06-16T05:29:37.225Z,930.98
2017-06-16T05:30:05.429Z,931.08
2017-06-16T05:30:33.684Z,931.01
2017-06-16T05:31:01.890Z,931.07
2017-06-16T05:32:13.198Z,931.04
2017-06-16T05:32:41.373Z,930.98
2017-06-16T05:33:09.585Z,931.03
2017-06-16T05:33:37.832Z,931.05
2017-06-16T05:34:06.104Z,930.96
2017-06-16T05:34:34.327Z,930.95
2017-06-16T05:35:02.570Z,930.95
2017-06-16T05:35:30.824Z,930.87
2017-06-16T05:35:58.926Z,930.93
2017-06-16T05:36:27.180Z,930.92
2017-06-16T05:36:55.474Z,930.98
2017-06-16T05:38:06.788Z,930.97
2017-06-16T05:38:35.023Z,930.91
2017-06-16T05:39:03.271Z,931
2017-06-16T05:39:31.610Z,930.98
2017-06-16T05:39:59.884Z,931.02
2017-06-16T05:40:28.105Z,931.03
2017-06-16T05:40:56.355Z,931.06
2017-06-16T05:41:24.514Z,931.02
2017-06-16T05:41:52.712Z,931.12
2017-06-16T05:42:20.967Z,931.06
2017-06-16T05:42:49.253Z,930.95
2017-06-16T05:44:00.473Z,931.02
2017-06-16T05:44:28.613Z,930.96
2017-06-16T05:44:56.864Z,931.08
2017-06-16T05:45:25.209Z,931.04
2017-06-16T05:45:53.387Z,930.94
2017-06-16T05:46:21.515Z,931.01
2017-06-16T05:46:49.757Z,930.94
2017-06-16T05:47:18.012Z,931.01
2017-06-16T05:47:46.304Z,931.14
2017-06-16T05:48:14.558Z,931.01
2017-06-16T05:48:42.665Z,930.96
2017-06-16T05:49:53.987Z,931
2017-06-16T05:50:22.130Z,930.97
2017-06-16T05:50:50.283Z,930.94
2017-06-16T05:51:18.435Z,931
2017-06-16T05:51:46.618Z,931.01
2017-06-16T05:52:14.743Z,930.94
2017-06-16T05:52:42.893Z,930.98
2017-06-16T05:53:11.051Z,930.96
2017-06-16T05:53:39.345Z,931.01
2017-06-16T05:54:07.608Z,931.03
2017-06-16T05:54:35.801Z,931.08
2017-06-16T05:55:47.017Z,930.99
2017-06-16T05:56:15.160Z,930.95
2017-06-16T05:56:43.405Z,930.92
2017-06-16T05:57:11.751Z,930.96
2017-06-16T05:57:39.929Z,930.91
2017-06-16T05:58:08.152Z,930.95
2017-06-16T05:58:36.393Z,931
2017-06-16T05:59:04.456Z,930.97
2017-06-16T05:59:32.650Z,930.9
2017-06-16T06:00:00.912Z,930.89
2017-06-16T06:00:29.110Z,930.87
2017-06-16T06:01:40.323Z,930.91
2017-06-16T06:02:08.465Z,930.95
2017-06-16T06:02:36.526Z,930.88
2017-06-16T06:03:04.868Z,930.93
2017-06-16T06:03:33.139Z,930.82
2017-06-16T06:04:01.357Z,930.81
2017-06-16T06:04:29.606Z,930.82
2017-06-16T06:04:57.759Z,930.84
2017-06-16T06:05:25.955Z,930.86
2017-06-16T06:05:54.213Z,930.89
2017-06-16T06:06:22.419Z,930.82
2017-06-16T06:07:33.732Z,930.82
2017-06-16T06:08:01.872Z,930.77
2017-06-16T06:08:30.118Z,930.83
2017-06-16T06:08:58.463Z,930.79
2017-06-16T06:09:26.637Z,930.87
2017-06-16T06:09:54.863Z,930.78
2017-06-16T06:10:23.110Z,930.75
2017-06-16T06:10:51.274Z,930.82
2017-06-16T06:11:19.470Z,930.8
2017-06-16T06:11:47.730Z,930.83
2017-06-16T06:12:16.021Z,930.77
2017-06-16T06:13:27.334Z,930.8
2017-06-16T06:13:55.469Z,930.81
2017-06-16T06:14:23.718Z,930.83
2017-06-16T06:14:51.972Z,930.84
2017-06-16T06:15:20.156Z,930.88
2017-06-16T06:15:48.282Z,930.9
2017-06-16T06:16:16.433Z,930.84
2017-06-16T06:16:44.683Z,930.96
2017-06-16T06:17:12.881Z,930.85
2017-06-16T06:17:41.136Z,930.9
2017-06-16T06:18:09.329Z,930.91
2017-06-16T06:19:20.453Z,930.92
2017-06-16T06:19:48.595Z,930.83
2017-06-16T06:20:16.841Z,930.84
2017-06-16T06:20:45.091Z,930.88
2017-06-16T06:21:13.363Z,930.87
2017-06-16T06:21:41.588Z,930.87
2017-06-16T06:22:10.274Z,930.91
2017-06-16T06:22:38.524Z,930.89
2017-06-16T06:23:06.730Z,930.87
2017-06-16T06:23:34.984Z,930.94
2017-06-16T06:24:03.278Z,930.83
2017-06-16T06:25:14.494Z,930.91
2017-06-16T06:25:42.733Z,930.92
2017-06-16T06:26:10.982Z,930.91
2017-06-16T06:26:39.139Z,931.01
2017-06-16T06:27:07.321Z,930.9
2017-06-16T06:27:35.542Z,930.99
2017-06-16T06:28:03.787Z,930.94
2017-06-16T06:28:32.041Z,930.93
2017-06-16T06:29:00.338Z,930.96
2017-06-16T06:29:28.595Z,931.02
2017-06-16T06:29:56.896Z,930.92
2017-06-16T06:31:08.114Z,931.03
2017-06-16T06:31:36.250Z,930.91
2017-06-16T06:32:04.500Z,930.86
2017-06-16T06:32:32.843Z,930.93
2017-06-16T06:33:00.922Z,930.87
2017-06-16T06:33:29.137Z,930.86
2017-06-16T06:33:57.380Z,930.87
2017-06-16T06:34:25.539Z,930.85
2017-06-16T06:34:53.740Z,930.89
2017-06-16T06:35:22.005Z,930.93
2017-06-16T06:35:50.296Z,930.8
2017-06-16T06:37:01.604Z,930.81
2017-06-16T06:37:29.837Z,930.86
2017-06-16T06:37:58.086Z,930.9
2017-06-16T06:38:26.427Z,930.87
2017-06-16T06:38:54.609Z,930.92
2017-06-16T06:39:22.734Z,930.94
2017-06-16T06:39:50.978Z,931.04
2017-06-16T06:40:19.131Z,931.01
2017-06-16T06:40:47.428Z,930.84
2017-06-16T06:41:15.688Z,930.86
2017-06-16T06:41:43.890Z,930.92
2017-06-16T06:42:55.008Z,930.97